sensor_id;sensor_type;location;lat;lon;timestamp;pressure;altitude;pressure_sealevel;temperature;humidity
54439;BME280;40347;53.848;27.498;2024-03-06T01:59:30;1021.3;;;0.3;65.4
54439;BME280;40347;53.848;27.498;2024-03-06T02:04:42;1021.2;;;0.3;65.6
54439;BME280;40347;53.848;27.498;2024-03-06T02:09:30;1021.3;;;0.3;65.6
54439;BME280;40347;53.848;27.498;2024-03-06T02:14:30;1021.3;;;0.4;65.5
54439;BME280;40347;53.848;27.498;2024-03-06T02:19:48;1021.4;;;0.4;65.4
54439;BME280;40347;53.848;27.498;2024-03-06T02:24:30;1021.4;;;0.4;65.6
54439;BME280;40347;53.848;27.498;2024-03-06T02:29:23;1021.4;;;0.4;65.8
54439;BME280;40347;53.848;27.498;2024-03-06T02:35:02;1021.5;;;0.3;66
54439;BME280;40347;53.848;27.498;2024-03-06T02:39:22;1021.5;;;0.3;65.9
54439;BME280;40347;53.848;27.498;2024-03-06T02:44:30;1021.6;;;0.4;65.8
54439;BME280;40347;53.848;27.498;2024-03-06T02:49:22;1021.6;;;0.5;65.8
54439;BME280;40347;53.848;27.498;2024-03-06T02:54:34;1021.6;;;0.5;66
54439;BME280;40347;53.848;27.498;2024-03-06T02:59:22;1021.6;;;0.6;66
54439;BME280;40347;53.848;27.498;2024-03-06T03:04:22;1021.6;;;0.7;65.8
54439;BME280;40347;53.848;27.498;2024-03-06T03:09:34;1021.6;;;0.7;65.9
54439;BME280;40347;53.848;27.498;2024-03-06T03:14:58;1021.6;;;0.8;65.5
54439;BME280;40347;53.848;27.498;2024-03-06T03:19:34;1021.7;;;0.7;65.4
54439;BME280;40347;53.848;27.498;2024-03-06T03:24:22;1021.8;;;0.6;65.5
54439;BME280;40347;53.848;27.498;2024-03-06T03:29:22;1021.8;;;0.7;65.6
54439;BME280;40347;53.848;27.498;2024-03-06T03:34:22;1021.8;;;0.6;65.4
54439;BME280;40347;53.848;27.498;2024-03-06T03:39:22;1021.9;;;0.6;65.8
54439;BME280;40347;53.848;27.498;2024-03-06T03:44:30;1021.9;;;0.7;65.7
54439;BME280;40347;53.848;27.498;2024-03-06T03:49:22;1021.9;;;0.8;65.5
54439;BME280;40347;53.848;27.498;2024-03-06T03:54:22;1022;;;0.8;65.5
54439;BME280;40347;53.848;27.498;2024-03-06T03:59:38;1022;;;1;65.1
54439;BME280;40347;53.848;27.498;2024-03-06T04:04:40;1022;;;0.9;65.3
54439;BME280;40347;53.848;27.498;2024-03-06T04:10:12;1022.1;;;1.1;65.3
54439;BME280;40347;53.848;27.498;2024-03-06T04:14:48;1022.1;;;1.1;65.3
54439;BME280;40347;53.848;27.498;2024-03-06T04:19:38;1022.1;;;1.1;65.2
54439;BME280;40347;53.848;27.498;2024-03-06T04:24:22;1022.2;;;1.2;65.1
54439;BME280;40347;53.848;27.498;2024-03-06T04:29:22;1022.2;;;1.3;65
54439;BME280;40347;53.848;27.498;2024-03-06T04:34:52;1022.3;;;1.4;64.9
54439;BME280;40347;53.848;27.498;2024-03-06T04:39:52;1022.3;;;1.4;64.8
54439;BME280;40347;53.848;27.498;2024-03-06T04:44:42;1022.3;;;1.5;64.6
54439;BME280;40347;53.848;27.498;2024-03-06T04:49:22;1022.4;;;1.5;64.4
54439;BME280;40347;53.848;27.498;2024-03-06T04:54:52;1022.3;;;1.4;64.3
54439;BME280;40347;53.848;27.498;2024-03-06T04:59:22;1022.3;;;1.3;64.4
54439;BME280;40347;53.848;27.498;2024-03-06T05:04:30;1022.4;;;1.2;64.5
54439;BME280;40347;53.848;27.498;2024-03-06T05:09:22;1022.4;;;1.1;64.6
54439;BME280;40347;53.848;27.498;2024-03-06T05:14:22;1022.5;;;1.1;64.5
54439;BME280;40347;53.848;27.498;2024-03-06T05:19:30;1022.5;;;1;64.6
54439;BME280;40347;53.848;27.498;2024-03-06T05:24:58;1022.5;;;1;64.7
54439;BME280;40347;53.848;27.498;2024-03-06T05:29:40;1022.6;;;1;64.6
54439;BME280;40347;53.848;27.498;2024-03-06T05:34:22;1022.6;;;1.1;64.4
54439;BME280;40347;53.848;27.498;2024-03-06T05:39:34;1022.6;;;1.2;64.3
54439;BME280;40347;53.848;27.498;2024-03-06T05:44:42;1022.6;;;1.3;64.1
54439;BME280;40347;53.848;27.498;2024-03-06T05:49:54;1022.7;;;1.4;64
54439;BME280;40347;53.848;27.498;2024-03-06T05:54:30;1022.7;;;1.6;63.8
54439;BME280;40347;53.848;27.498;2024-03-06T05:59:42;1022.7;;;1.7;63.5
54439;BME280;40347;53.848;27.498;2024-03-06T06:04:48;1022.8;;;1.8;63.3
54439;BME280;40347;53.848;27.498;2024-03-06T06:09:48;1022.8;;;1.9;63.1
54439;BME280;40347;53.848;27.498;2024-03-06T06:14:22;1022.9;;;2;62.9
54439;BME280;40347;53.848;27.498;2024-03-06T06:19:22;1022.9;;;2.3;62.7
54439;BME280;40347;53.848;27.498;2024-03-06T06:24:34;1023;;;2.3;62.3
54439;BME280;40347;53.848;27.498;2024-03-06T06:29:42;1023;;;2.3;62.1
54439;BME280;40347;53.848;27.498;2024-03-06T06:34:36;1023;;;2.5;62
54439;BME280;40347;53.848;27.498;2024-03-06T06:39:22;1023;;;2.6;61.6
54439;BME280;40347;53.848;27.498;2024-03-06T06:44:40;1023;;;2.7;61.5
54439;BME280;40347;53.848;27.498;2024-03-06T06:49:48;1023;;;2.7;61.6
54439;BME280;40347;53.848;27.498;2024-03-06T06:54:30;1023.1;;;2.8;61.3
54439;BME280;40347;53.848;27.498;2024-03-06T06:59:30;1023.2;;;2.8;60.9
54439;BME280;40347;53.848;27.498;2024-03-06T07:04:48;1023.2;;;2.8;61
54439;BME280;40347;53.848;27.498;2024-03-06T07:09:22;1023.2;;;2.9;60.8
54439;BME280;40347;53.848;27.498;2024-03-06T07:14:42;1023.3;;;2.9;60.6
54439;BME280;40347;53.848;27.498;2024-03-06T07:19:22;1023.3;;;3;60.2
54439;BME280;40347;53.848;27.498;2024-03-06T07:25:14;1023.4;;;3.1;59.9
54439;BME280;40347;53.848;27.498;2024-03-06T07:29:40;1023.4;;;3.1;59.9
54439;BME280;40347;53.848;27.498;2024-03-06T07:34:43;1023.4;;;3.2;59.6
54439;BME280;40347;53.848;27.498;2024-03-06T07:39:24;1023.4;;;3.3;58.8
54439;BME280;40347;53.848;27.498;2024-03-06T07:45:04;1023.5;;;3.4;58.8
54439;BME280;40347;53.848;27.498;2024-03-06T07:49:34;1023.5;;;3.4;58.8
54439;BME280;40347;53.848;27.498;2024-03-06T07:54:34;1023.5;;;3.5;58.7
54439;BME280;40347;53.848;27.498;2024-03-06T07:59:34;1023.5;;;3.6;58
54439;BME280;40347;53.848;27.498;2024-03-06T08:04:54;1023.6;;;3.4;58.2
54439;BME280;40347;53.848;27.498;2024-03-06T08:09:22;1023.6;;;3.6;58.1
54439;BME280;40347;53.848;27.498;2024-03-06T08:14:44;1023.6;;;4;57.7
54439;BME280;40347;53.848;27.498;2024-03-06T08:19:52;1023.7;;;4.4;57.2
54439;BME280;40347;53.848;27.498;2024-03-06T08:24:48;1023.7;;;4.7;56.6
54439;BME280;40347;53.848;27.498;2024-03-06T08:29:22;1023.7;;;4.8;55.9
54439;BME280;40347;53.848;27.498;2024-03-06T08:34:44;1023.8;;;4.7;55.7
54439;BME280;40347;53.848;27.498;2024-03-06T08:39:34;1023.8;;;4.6;55.8
54439;BME280;40347;53.848;27.498;2024-03-06T08:44:22;1023.8;;;4.6;55.8
54439;BME280;40347;53.848;27.498;2024-03-06T08:49:22;1023.8;;;5.1;55.3
54439;BME280;40347;53.848;27.498;2024-03-06T08:55:14;1023.8;;;5.7;54
54439;BME280;40347;53.848;27.498;2024-03-06T08:59:30;1023.8;;;5.7;54
54439;BME280;40347;53.848;27.498;2024-03-06T09:04:23;1023.8;;;5.6;53.8
54439;BME280;40347;53.848;27.498;2024-03-06T09:09:34;1023.8;;;5.3;53.7
54439;BME280;40347;53.848;27.498;2024-03-06T09:14:40;1023.7;;;5.2;52.1
54439;BME280;40347;53.848;27.498;2024-03-06T09:19:40;1023.7;;;4.9;51.7
54439;BME280;40347;53.848;27.498;2024-03-06T09:24:34;1023.7;;;4.6;52.6
54439;BME280;40347;53.848;27.498;2024-03-06T09:29:34;1023.7;;;4.5;52.7
54439;BME280;40347;53.848;27.498;2024-03-06T09:34:22;1023.7;;;4.7;52.9
54439;BME280;40347;53.848;27.498;2024-03-06T09:39:54;1023.7;;;4.9;52.6
54439;BME280;40347;53.848;27.498;2024-03-06T09:44:40;1023.7;;;5.2;52.4
54439;BME280;40347;53.848;27.498;2024-03-06T09:49:40;1023.7;;;5.4;51.9
54439;BME280;40347;53.848;27.498;2024-03-06T09:54:22;1023.7;;;5.8;51.7
54439;BME280;40347;53.848;27.498;2024-03-06T09:59:50;1023.8;;;6.1;50.9
54439;BME280;40347;53.848;27.498;2024-03-06T10:04:52;1023.8;;;6.3;50.5
54439;BME280;40347;53.848;27.498;2024-03-06T10:09:32;1023.8;;;6.3;50.2
54439;BME280;40347;53.848;27.498;2024-03-06T10:14:22;1023.8;;;6.3;50.2
54439;BME280;40347;53.848;27.498;2024-03-06T10:19:54;1023.8;;;6;49.8
54439;BME280;40347;53.848;27.498;2024-03-06T10:24:42;1023.8;;;5.8;50.4
54439;BME280;40347;53.848;27.498;2024-03-06T10:29:22;1023.8;;;5.7;49.7
54439;BME280;40347;53.848;27.498;2024-03-06T10:34:44;1023.8;;;5.6;48.9
54439;BME280;40347;53.848;27.498;2024-03-06T10:39:42;1023.7;;;5.5;49.1
54439;BME280;40347;53.848;27.498;2024-03-06T10:44:22;1023.7;;;5.5;48.9
54439;BME280;40347;53.848;27.498;2024-03-06T10:49:40;1023.6;;;5.4;48.6
54439;BME280;40347;53.848;27.498;2024-03-06T10:54:40;1023.6;;;5.4;48.7
54439;BME280;40347;53.848;27.498;2024-03-06T10:59:24;1023.6;;;5.3;48.8
54439;BME280;40347;53.848;27.498;2024-03-06T11:04:42;1023.6;;;5.3;49
54439;BME280;40347;53.848;27.498;2024-03-06T11:09:44;1023.7;;;5.4;48.7
54439;BME280;40347;53.848;27.498;2024-03-06T11:14:22;1023.7;;;5.4;48.2
54439;BME280;40347;53.848;27.498;2024-03-06T11:19:22;1023.7;;;5.3;48.2
54439;BME280;40347;53.848;27.498;2024-03-06T11:24:22;1023.7;;;5.3;48.1
54439;BME280;40347;53.848;27.498;2024-03-06T11:30:12;1023.7;;;5.1;48.2
54439;BME280;40347;53.848;27.498;2024-03-06T11:34:48;1023.6;;;5.1;47.1
54439;BME280;40347;53.848;27.498;2024-03-06T11:39:40;1023.6;;;4.9;47.8
54439;BME280;40347;53.848;27.498;2024-03-06T11:44:22;1023.6;;;4.9;47.8
54439;BME280;40347;53.848;27.498;2024-03-06T11:49:31;1023.5;;;4.9;48.1
54439;BME280;40347;53.848;27.498;2024-03-06T11:54:23;1023.5;;;4.9;48.4
54439;BME280;40347;53.848;27.498;2024-03-06T11:59:22;1023.5;;;5;48.2
54439;BME280;40347;53.848;27.498;2024-03-06T12:04:23;1023.4;;;5.1;47.6
54439;BME280;40347;53.848;27.498;2024-03-06T12:09:22;1023.4;;;5.1;47.2
54439;BME280;40347;53.848;27.498;2024-03-06T12:14:22;1023.5;;;5.1;47.5
54439;BME280;40347;53.848;27.498;2024-03-06T12:19:38;1023.4;;;5.2;47.4
54439;BME280;40347;53.848;27.498;2024-03-06T12:24:22;1023.4;;;5.3;47.3
54439;BME280;40347;53.848;27.498;2024-03-06T12:29:58;1023.4;;;5.5;45.7
54439;BME280;40347;53.848;27.498;2024-03-06T12:34:22;1023.4;;;5.3;46
54439;BME280;40347;53.848;27.498;2024-03-06T12:39:23;1023.4;;;5.2;45.5
54439;BME280;40347;53.848;27.498;2024-03-06T12:44:34;1023.4;;;5;46.6
54439;BME280;40347;53.848;27.498;2024-03-06T12:49:30;1023.4;;;5;47.3
54439;BME280;40347;53.848;27.498;2024-03-06T12:55:02;1023.3;;;5.2;47.1
54439;BME280;40347;53.848;27.498;2024-03-06T12:59:44;1023.3;;;5.3;46.5
54439;BME280;40347;53.848;27.498;2024-03-06T13:04:50;1023.2;;;5.2;45.5
54439;BME280;40347;53.848;27.498;2024-03-06T13:09:40;1023.2;;;5;46.3
54439;BME280;40347;53.848;27.498;2024-03-06T13:14:22;1023.2;;;5;46.9
54439;BME280;40347;53.848;27.498;2024-03-06T13:19:22;1023.2;;;5;46.9
54439;BME280;40347;53.848;27.498;2024-03-06T13:24:40;1023.3;;;5.1;46.9
54439;BME280;40347;53.848;27.498;2024-03-06T13:29:52;1023.2;;;5.1;47.1
54439;BME280;40347;53.848;27.498;2024-03-06T13:34:22;1023.2;;;5.2;47
54439;BME280;40347;53.848;27.498;2024-03-06T13:39:30;1023.1;;;5.3;45.9
54439;BME280;40347;53.848;27.498;2024-03-06T13:44:22;1023.1;;;5.1;46.2
54439;BME280;40347;53.848;27.498;2024-03-06T13:49:34;1023.1;;;5.1;45.5
54439;BME280;40347;53.848;27.498;2024-03-06T13:54:30;1023.1;;;4.8;46.5
54439;BME280;40347;53.848;27.498;2024-03-06T13:59:42;1023.1;;;4.8;47.1
54439;BME280;40347;53.848;27.498;2024-03-06T14:04:22;1023.1;;;4.9;47.3
54439;BME280;40347;53.848;27.498;2024-03-06T14:09:22;1023.1;;;5.2;46
54439;BME280;40347;53.848;27.498;2024-03-06T14:14:23;1023.1;;;5;45.7
54439;BME280;40347;53.848;27.498;2024-03-06T14:19:38;1023.2;;;4.8;46.6
54439;BME280;40347;53.848;27.498;2024-03-06T14:24:42;1023.2;;;4.8;46.9
54439;BME280;40347;53.848;27.498;2024-03-06T14:29:34;1023.2;;;5;46
54439;BME280;40347;53.848;27.498;2024-03-06T14:34:34;1023.1;;;4.8;46
54439;BME280;40347;53.848;27.498;2024-03-06T14:39:22;1023.2;;;4.7;46
54439;BME280;40347;53.848;27.498;2024-03-06T14:44:34;1023.2;;;4.5;46.6
54439;BME280;40347;53.848;27.498;2024-03-06T14:49:42;1023.2;;;4.5;47
54439;BME280;40347;53.848;27.498;2024-03-06T14:54:40;1023.1;;;4.6;46.4
54439;BME280;40347;53.848;27.498;2024-03-06T14:59:23;1023.2;;;4.5;46.7
54439;BME280;40347;53.848;27.498;2024-03-06T15:05:02;1023.2;;;4.4;46.5
54439;BME280;40347;53.848;27.498;2024-03-06T15:09:48;1023.2;;;4.2;46.6
54439;BME280;40347;53.848;27.498;2024-03-06T15:14:30;1023.2;;;4.1;47.4
54439;BME280;40347;53.848;27.498;2024-03-06T15:20:07;1023.2;;;4.1;47.2
54439;BME280;40347;53.848;27.498;2024-03-06T15:24:52;1023.2;;;4.1;47.2
54439;BME280;40347;53.848;27.498;2024-03-06T15:29:22;1023.2;;;4.1;47.2
54439;BME280;40347;53.848;27.498;2024-03-06T15:34:30;1023.2;;;4;47.3
54439;BME280;40347;53.848;27.498;2024-03-06T15:39:38;1023.2;;;3.9;47.6
54439;BME280;40347;53.848;27.498;2024-03-06T15:44:35;1023.2;;;3.9;47.6
54439;BME280;40347;53.848;27.498;2024-03-06T15:49:30;1023.3;;;3.8;47.8
54439;BME280;40347;53.848;27.498;2024-03-06T15:54:30;1023.3;;;3.8;48
54439;BME280;40347;53.848;27.498;2024-03-06T15:59:32;1023.4;;;3.7;48.1
54439;BME280;40347;53.848;27.498;2024-03-06T16:04:34;1023.4;;;3.6;48.2
54439;BME280;40347;53.848;27.498;2024-03-06T16:09:22;1023.5;;;3.5;48.5
54439;BME280;40347;53.848;27.498;2024-03-06T16:14:42;1023.5;;;3.5;48.9
54439;BME280;40347;53.848;27.498;2024-03-06T16:20:05;1023.5;;;3.4;49.1
54439;BME280;40347;53.848;27.498;2024-03-06T16:24:30;1023.5;;;3.4;49.1
54439;BME280;40347;53.848;27.498;2024-03-06T16:29:54;1023.5;;;3.4;49.3
54439;BME280;40347;53.848;27.498;2024-03-06T16:34:40;1023.6;;;3.4;49.4
54439;BME280;40347;53.848;27.498;2024-03-06T16:39:34;1023.6;;;3.3;49.5
54439;BME280;40347;53.848;27.498;2024-03-06T16:44:23;1023.7;;;3.4;49.5
54439;BME280;40347;53.848;27.498;2024-03-06T16:49:32;1023.8;;;3.3;49.6
54439;BME280;40347;53.848;27.498;2024-03-06T16:54:40;1023.8;;;3.3;49.4
54439;BME280;40347;53.848;27.498;2024-03-06T16:59:44;1023.9;;;3.3;49.6
54439;BME280;40347;53.848;27.498;2024-03-06T17:04:54;1023.9;;;3.2;49.7
54439;BME280;40347;53.848;27.498;2024-03-06T17:09:32;1023.9;;;3.2;49.9
54439;BME280;40347;53.848;27.498;2024-03-06T17:14:30;1023.9;;;3.3;49.9
54439;BME280;40347;53.848;27.498;2024-03-06T17:19:22;1023.8;;;3.4;49.4
54439;BME280;40347;53.848;27.498;2024-03-06T17:24:22;1023.9;;;3.2;49.8
54439;BME280;40347;53.848;27.498;2024-03-06T17:29:40;1023.9;;;3.2;50.1
54439;BME280;40347;53.848;27.498;2024-03-06T17:34:30;1023.9;;;3.2;50.2
54439;BME280;40347;53.848;27.498;2024-03-06T17:39:22;1023.9;;;3.1;50.4
54439;BME280;40347;53.848;27.498;2024-03-06T17:44:40;1023.9;;;3.1;50.4
54439;BME280;40347;53.848;27.498;2024-03-06T17:49:42;1023.9;;;3.1;50.6
54439;BME280;40347;53.848;27.498;2024-03-06T17:54:42;1024;;;3;50.8
54439;BME280;40347;53.848;27.498;2024-03-06T17:59:34;1024;;;2.9;50.9
54439;BME280;40347;53.848;27.498;2024-03-06T18:04:52;1024;;;2.9;51.1
54439;BME280;40347;53.848;27.498;2024-03-06T18:09:50;1024;;;2.9;51.2
54439;BME280;40347;53.848;27.498;2024-03-06T18:14:30;1024;;;3;50.9
54439;BME280;40347;53.848;27.498;2024-03-06T18:19:48;1024;;;2.9;51.1
54439;BME280;40347;53.848;27.498;2024-03-06T18:24:22;1024;;;2.9;51.2
54439;BME280;40347;53.848;27.498;2024-03-06T18:29:22;1024.1;;;2.9;51.2
54439;BME280;40347;53.848;27.498;2024-03-06T18:34:23;1024.1;;;2.9;51.3
54439;BME280;40347;53.848;27.498;2024-03-06T18:39:30;1024.1;;;2.8;51.2
54439;BME280;40347;53.848;27.498;2024-03-06T18:44:22;1024.1;;;2.8;51
54439;BME280;40347;53.848;27.498;2024-03-06T18:49:33;1024.1;;;2.7;51.2
54439;BME280;40347;53.848;27.498;2024-03-06T18:54:22;1024.2;;;2.6;51.6
54439;BME280;40347;53.848;27.498;2024-03-06T18:59:49;1024.2;;;2.6;51.7
54439;BME280;40347;53.848;27.498;2024-03-06T19:04:30;1024.2;;;2.5;51.9
54439;BME280;40347;53.848;27.498;2024-03-06T19:09:22;1024.2;;;2.6;52
54439;BME280;40347;53.848;27.498;2024-03-06T19:14:22;1024.2;;;2.5;51.8
54439;BME280;40347;53.848;27.498;2024-03-06T19:19:23;1024.2;;;2.5;51.9
54439;BME280;40347;53.848;27.498;2024-03-06T19:24:42;1024.2;;;2.5;51.9
54439;BME280;40347;53.848;27.498;2024-03-06T19:29:42;1024.3;;;2.4;52.1
54439;BME280;40347;53.848;27.498;2024-03-06T19:34:50;1024.3;;;2.4;51.9
54439;BME280;40347;53.848;27.498;2024-03-06T19:39:53;1024.3;;;2.3;52.3
54439;BME280;40347;53.848;27.498;2024-03-06T19:44:23;1024.4;;;2.2;52.3
54439;BME280;40347;53.848;27.498;2024-03-06T19:49:23;1024.4;;;2.2;52.6
54439;BME280;40347;53.848;27.498;2024-03-06T19:54:23;1024.4;;;2.2;52.6
54439;BME280;40347;53.848;27.498;2024-03-06T19:59:50;1024.4;;;2.2;52.7
54439;BME280;40347;53.848;27.498;2024-03-06T20:04:41;1024.5;;;2.2;52.5
54439;BME280;40347;53.848;27.498;2024-03-06T20:09:23;1024.4;;;2;52.8
54439;BME280;40347;53.848;27.498;2024-03-06T20:14:23;1024.4;;;1.9;53.1
54439;BME280;40347;53.848;27.498;2024-03-06T20:19:23;1024.4;;;1.8;53.4
54439;BME280;40347;53.848;27.498;2024-03-06T20:24:33;1024.4;;;1.8;53.5
54439;BME280;40347;53.848;27.498;2024-03-06T20:29:41;1024.4;;;1.8;53.6
54439;BME280;40347;53.848;27.498;2024-03-06T20:34:23;1024.4;;;1.8;53.6
54439;BME280;40347;53.848;27.498;2024-03-06T20:39:53;1024.4;;;1.7;53.8
54439;BME280;40347;53.848;27.498;2024-03-06T20:44:23;1024.4;;;1.7;54
54439;BME280;40347;53.848;27.498;2024-03-06T20:49:23;1024.4;;;1.6;54.3
54439;BME280;40347;53.848;27.498;2024-03-06T20:54:53;1024.4;;;1.6;54.4
54439;BME280;40347;53.848;27.498;2024-03-06T20:59:23;1024.5;;;1.6;54.4
54439;BME280;40347;53.848;27.498;2024-03-06T21:04:35;1024.5;;;1.5;54.4
54439;BME280;40347;53.848;27.498;2024-03-06T21:09:23;1024.5;;;1.5;54.6
54439;BME280;40347;53.848;27.498;2024-03-06T21:14:43;1024.5;;;1.4;54.9
54439;BME280;40347;53.848;27.498;2024-03-06T21:19:23;1024.5;;;1.4;54.9
54439;BME280;40347;53.848;27.498;2024-03-06T21:24:49;1024.5;;;1.4;55
54439;BME280;40347;53.848;27.498;2024-03-06T21:29:23;1024.5;;;1.4;55.1
54439;BME280;40347;53.848;27.498;2024-03-06T21:34:23;1024.5;;;1.3;55.1
54439;BME280;40347;53.848;27.498;2024-03-06T21:39:53;1024.5;;;1.3;55.4
54439;BME280;40347;53.848;27.498;2024-03-06T21:44:41;1024.5;;;1.3;55.6
54439;BME280;40347;53.848;27.498;2024-03-06T21:49:45;1024.5;;;1.3;55.7
54439;BME280;40347;53.848;27.498;2024-03-06T21:54:41;1024.5;;;1.3;55.8
54439;BME280;40347;53.848;27.498;2024-03-06T21:59:23;1024.5;;;1.3;55.9
54439;BME280;40347;53.848;27.498;2024-03-06T22:05:05;1024.5;;;1.3;56.1
54439;BME280;40347;53.848;27.498;2024-03-06T22:09:55;1024.5;;;1.3;56.1
54439;BME280;40347;53.848;27.498;2024-03-06T22:14:23;1024.5;;;1.3;56.2
54439;BME280;40347;53.848;27.498;2024-03-06T22:19:23;1024.4;;;1.2;56.2
54439;BME280;40347;53.848;27.498;2024-03-06T22:24:49;1024.4;;;1.2;56.3
54439;BME280;40347;53.848;27.498;2024-03-06T22:29:23;1024.4;;;1.2;56.6
54439;BME280;40347;53.848;27.498;2024-03-06T22:34:35;1024.4;;;1.1;56.7
54439;BME280;40347;53.848;27.498;2024-03-06T22:39:43;1024.4;;;1.1;56.8
54439;BME280;40347;53.848;27.498;2024-03-06T22:44:36;1024.5;;;1.1;56.8
54439;BME280;40347;53.848;27.498;2024-03-06T22:49:45;1024.5;;;1.1;56.7
54439;BME280;40347;53.848;27.498;2024-03-06T22:54:23;1024.5;;;1.1;56.8
54439;BME280;40347;53.848;27.498;2024-03-06T22:59:31;1024.5;;;1.1;56.7
54439;BME280;40347;53.848;27.498;2024-03-06T23:04:23;1024.5;;;1.1;56.5
54439;BME280;40347;53.848;27.498;2024-03-06T23:10:05;1024.5;;;1.1;56.3
54439;BME280;40347;53.848;27.498;2024-03-06T23:14:53;1024.5;;;1.1;56.3
54439;BME280;40347;53.848;27.498;2024-03-06T23:19:41;1024.5;;;1.1;56.4
54439;BME280;40347;53.848;27.498;2024-03-06T23:24:31;1024.5;;;1;56.6
54439;BME280;40347;53.848;27.498;2024-03-06T23:29:23;1024.5;;;1;56.9
54439;BME280;40347;53.848;27.498;2024-03-06T23:34:23;1024.4;;;1;57
54439;BME280;40347;53.848;27.498;2024-03-06T23:39:47;1024.4;;;1;56.8
54439;BME280;40347;53.848;27.498;2024-03-06T23:44:33;1024.4;;;1.1;56.5
54439;BME280;40347;53.848;27.498;2024-03-06T23:49:41;1024.3;;;1;56.6
54439;BME280;40347;53.848;27.498;2024-03-06T23:54:49;1024.3;;;1;56.8
